createdAt,value
2022-10-18T00:02:02.994Z,5.60
2022-10-18T00:04:29.484Z,5.93
2022-10-18T00:06:55.842Z,5.68
2022-10-18T00:09:22.252Z,5.25
2022-10-18T00:11:48.754Z,4.72
2022-10-18T00:14:15.253Z,5.03
2022-10-18T00:16:41.647Z,5.22
2022-10-18T00:19:08.154Z,4.97
2022-10-18T00:21:34.647Z,5.13
2022-10-18T00:24:01.080Z,4.80
2022-10-18T00:26:30.592Z,5.10
2022-10-18T00:29:03.598Z,5.25
2022-10-18T00:31:36.667Z,5.13
2022-10-18T00:34:07.187Z,5.30
2022-10-18T00:36:34.553Z,5.03
2022-10-18T00:39:02.220Z,5.72
2022-10-18T00:41:31.855Z,6.22
2022-10-18T00:44:00.900Z,5.97
2022-10-18T00:46:35.939Z,6.28
2022-10-18T00:49:27.338Z,5.80
2022-10-18T00:51:57.951Z,7.32
2022-10-18T00:54:24.837Z,7.35
2022-10-18T00:56:51.326Z,6.75
2022-10-18T00:59:18.835Z,6.85
2022-10-18T01:01:45.645Z,6.88
2022-10-18T01:04:13.962Z,6.43
2022-10-18T01:07:19.197Z,7.25
2022-10-18T01:10:13.460Z,6.07
2022-10-18T01:12:58.708Z,7.57
2022-10-18T01:15:31.564Z,6.75
2022-10-18T01:18:13.180Z,6.78
2022-10-18T01:21:01.481Z,7.60
2022-10-18T01:23:46.623Z,7.07
2022-10-18T01:26:16.024Z,7.60
2022-10-18T01:29:12.046Z,7.07
2022-10-18T01:31:46.838Z,6.72
2022-10-18T01:34:15.750Z,7.57
2022-10-18T01:36:52.365Z,6.45
2022-10-18T01:39:22.523Z,7.35
2022-10-18T01:41:50.881Z,7.18
2022-10-18T01:44:25.717Z,7.90
2022-10-18T01:46:53.307Z,7.78
2022-10-18T01:49:19.713Z,7.70
2022-10-18T01:51:46.284Z,8.55
2022-10-18T01:54:21.970Z,8.00
2022-10-18T01:57:01.949Z,7.68
2022-10-18T01:59:45.203Z,8.52
2022-10-18T02:02:47.109Z,7.63
2022-10-18T02:05:22.647Z,8.50
2022-10-18T02:08:05.624Z,9.00
2022-10-18T02:10:44.960Z,7.57
2022-10-18T02:15:39.871Z,6.78
2022-10-18T02:18:14.728Z,9.05
2022-10-18T02:20:41.283Z,7.75
2022-10-18T02:23:08.895Z,7.57
2022-10-18T02:25:35.658Z,6.57
2022-10-18T02:28:03.248Z,8.68
2022-10-18T02:30:37.588Z,8.52
2022-10-18T02:33:22.548Z,8.13
2022-10-18T02:35:52.633Z,9.40
2022-10-18T02:38:19.618Z,8.03
2022-10-18T02:40:45.990Z,8.07
2022-10-18T02:43:13.970Z,6.35
2022-10-18T02:45:40.381Z,7.68
2022-10-18T02:48:07.208Z,6.93
2022-10-18T02:50:33.636Z,7.20
2022-10-18T02:53:00.046Z,8.73
2022-10-18T02:55:26.459Z,8.23
2022-10-18T02:57:52.886Z,8.70
2022-10-18T03:00:19.325Z,8.02
2022-10-18T03:02:45.927Z,8.23
2022-10-18T03:05:12.496Z,9.52
2022-10-18T03:07:38.870Z,8.48
2022-10-18T03:10:05.734Z,8.88
2022-10-18T03:12:32.134Z,8.98
2022-10-18T03:14:58.539Z,7.97
2022-10-18T03:17:24.966Z,8.10
2022-10-18T03:19:51.368Z,8.30
2022-10-18T03:22:17.859Z,8.27
2022-10-18T03:24:45.460Z,9.73
2022-10-18T03:27:11.946Z,8.63
2022-10-18T03:29:38.369Z,8.85
2022-10-18T03:32:04.859Z,8.15
2022-10-18T03:34:31.256Z,8.68
2022-10-18T03:37:00.896Z,8.52
2022-10-18T03:39:29.854Z,9.05
2022-10-18T03:41:56.433Z,8.90
2022-10-18T03:44:22.803Z,9.27
2022-10-18T03:46:49.162Z,8.45
2022-10-18T03:49:15.718Z,9.45
2022-10-18T03:51:42.087Z,8.95
2022-10-18T03:54:08.516Z,9.15
2022-10-18T03:56:34.973Z,8.80
2022-10-18T03:59:02.632Z,9.05
2022-10-18T04:01:29.115Z,8.93
2022-10-18T04:03:55.572Z,9.38
2022-10-18T04:06:21.971Z,10.00
2022-10-18T04:08:48.359Z,9.18
2022-10-18T04:11:15.024Z,9.98
2022-10-18T04:13:41.474Z,10.13
2022-10-18T04:16:07.873Z,11.32
2022-10-18T04:18:34.271Z,11.00
2022-10-18T04:21:00.655Z,10.77
2022-10-18T04:23:27.177Z,10.02
2022-10-18T04:25:53.617Z,9.73
2022-10-18T04:28:20.018Z,8.70
2022-10-18T04:30:53.133Z,10.77
2022-10-18T04:33:20.162Z,9.50
2022-10-18T04:35:46.770Z,10.50
2022-10-18T04:38:14.269Z,10.05
2022-10-18T04:40:40.722Z,11.32
2022-10-18T04:43:07.165Z,10.68
2022-10-18T04:45:33.566Z,12.05
2022-10-18T04:48:00.046Z,11.65
2022-10-18T04:50:26.578Z,11.85
2022-10-18T04:52:53.457Z,11.52
2022-10-18T04:55:20.503Z,11.68
2022-10-18T04:57:46.892Z,14.13
2022-10-18T05:00:13.766Z,11.93
2022-10-18T05:02:40.239Z,12.25
2022-10-18T05:05:09.240Z,12.82
2022-10-18T05:07:38.150Z,12.65
2022-10-18T05:10:05.189Z,13.40
2022-10-18T05:12:31.801Z,12.40
2022-10-18T05:14:58.382Z,14.48
2022-10-18T05:17:25.009Z,13.35
2022-10-18T05:19:51.374Z,12.80
2022-10-18T05:22:17.735Z,13.85
2022-10-18T05:24:44.229Z,13.55
2022-10-18T05:27:11.082Z,13.95
2022-10-18T05:29:37.455Z,14.88
2022-10-18T05:32:04.239Z,14.70
2022-10-18T05:34:31.858Z,14.50
2022-10-18T05:36:58.546Z,16.48
2022-10-18T05:39:24.993Z,14.32
2022-10-18T05:41:51.383Z,13.68
2022-10-18T05:44:17.873Z,15.52
2022-10-18T05:46:44.314Z,15.90
2022-10-18T05:49:12.134Z,17.63
2022-10-18T05:51:38.669Z,16.35
2022-10-18T05:54:05.314Z,17.73
2022-10-18T05:56:31.738Z,17.15
2022-10-18T05:58:58.168Z,15.30
2022-10-18T06:01:24.612Z,16.63
2022-10-18T06:03:51.201Z,16.38
2022-10-18T06:06:17.611Z,14.73
2022-10-18T06:08:44.212Z,17.15
2022-10-18T06:11:15.602Z,17.83
2022-10-18T06:13:46.113Z,19.15
2022-10-18T06:16:13.618Z,18.48
2022-10-18T06:18:40.561Z,18.75
2022-10-18T06:21:07.963Z,17.95
2022-10-18T06:23:34.995Z,21.23
2022-10-18T06:26:06.619Z,18.38
2022-10-18T06:28:35.408Z,21.38
2022-10-18T06:31:02.025Z,21.33
2022-10-18T06:33:30.737Z,20.73
2022-10-18T06:36:02.437Z,22.40
2022-10-18T06:38:29.635Z,23.77
2022-10-18T06:40:56.995Z,23.05
2022-10-18T06:43:24.374Z,21.58
2022-10-18T06:45:51.399Z,21.90
2022-10-18T06:50:59.126Z,27.50
2022-10-18T06:53:26.505Z,26.10
2022-10-18T06:55:58.387Z,27.27
2022-10-18T06:58:24.847Z,28.90
2022-10-18T07:00:51.272Z,29.77
2022-10-18T07:03:17.750Z,33.55
2022-10-18T07:05:44.163Z,33.38
2022-10-18T07:08:10.789Z,31.50
2022-10-18T07:10:39.427Z,32.22
2022-10-18T07:13:31.096Z,31.67
2022-10-18T07:16:02.358Z,32.03
2022-10-18T07:18:28.790Z,31.52
2022-10-18T07:20:55.173Z,32.95
2022-10-18T07:23:23.694Z,31.25
2022-10-18T07:25:50.567Z,33.05
2022-10-18T07:28:17.417Z,32.45
2022-10-18T07:30:43.849Z,31.60
2022-10-18T07:33:10.247Z,29.80
2022-10-18T07:35:36.631Z,29.80
2022-10-18T07:38:04.590Z,29.50
2022-10-18T07:40:31.414Z,29.63
2022-10-18T07:42:59.822Z,31.75
2022-10-18T07:45:29.177Z,31.70
2022-10-18T07:47:56.667Z,31.35
2022-10-18T07:50:23.520Z,31.10
2022-10-18T07:52:49.889Z,31.08
2022-10-18T07:55:16.485Z,33.53
2022-10-18T07:57:43.075Z,32.25
2022-10-18T08:00:11.460Z,33.00
2022-10-18T08:02:37.942Z,32.97
2022-10-18T08:05:04.479Z,32.10
2022-10-18T08:07:33.136Z,32.63
2022-10-18T08:09:59.723Z,33.15
2022-10-18T08:12:26.133Z,33.15
2022-10-18T08:14:52.520Z,32.97
2022-10-18T08:17:18.921Z,34.80
2022-10-18T08:19:52.957Z,33.80
2022-10-18T08:22:31.690Z,34.90
2022-10-18T08:24:58.053Z,35.47
2022-10-18T08:27:26.258Z,34.58
2022-10-18T08:29:53.293Z,31.50
2022-10-18T08:32:19.904Z,31.23
2022-10-18T08:34:47.110Z,33.03
2022-10-18T08:37:13.488Z,32.22
2022-10-18T08:39:39.853Z,29.33
2022-10-18T08:42:34.485Z,31.63
2022-10-18T08:45:08.268Z,29.73
2022-10-18T08:47:49.005Z,31.88
2022-10-18T08:50:18.678Z,28.77
2022-10-18T08:52:59.343Z,28.75
2022-10-18T08:55:44.696Z,30.67
2022-10-18T08:58:26.657Z,29.98
2022-10-18T09:01:12.431Z,29.13
2022-10-18T09:04:01.440Z,30.92
2022-10-18T09:06:32.419Z,29.02
2022-10-18T09:12:09.692Z,27.08
2022-10-18T09:14:45.176Z,27.45
2022-10-18T09:17:16.083Z,25.00
2022-10-18T09:20:04.125Z,24.85
2022-10-18T09:22:52.333Z,27.60
2022-10-18T09:25:28.139Z,26.15
2022-10-18T09:28:28.154Z,28.02
2022-10-18T09:31:08.382Z,26.75
2022-10-18T09:33:46.869Z,28.00
2022-10-18T09:36:23.052Z,27.85
2022-10-18T09:38:58.583Z,25.90
2022-10-18T09:41:29.449Z,22.92
2022-10-18T09:44:00.555Z,22.33
2022-10-18T09:46:31.431Z,22.90
2022-10-18T09:51:44.296Z,21.58
2022-10-18T09:54:40.452Z,20.70
2022-10-18T09:57:11.326Z,22.15
2022-10-18T10:02:06.007Z,19.60
2022-10-18T10:04:32.628Z,19.30
2022-10-18T10:07:00.809Z,19.35
2022-10-18T10:09:36.375Z,18.23
2022-10-18T10:12:03.165Z,17.00
2022-10-18T10:14:30.619Z,17.73
2022-10-18T10:16:58.659Z,15.50
2022-10-18T10:19:30.872Z,15.55
2022-10-18T10:22:12.628Z,16.15
2022-10-18T10:24:48.919Z,14.90
2022-10-18T10:27:21.691Z,14.77
2022-10-18T10:29:48.212Z,15.80
2022-10-18T10:32:17.081Z,15.02
2022-10-18T10:34:45.001Z,12.40
2022-10-18T10:37:26.777Z,11.32
2022-10-18T10:40:21.874Z,10.98
2022-10-18T10:43:04.280Z,10.82
2022-10-18T10:45:59.643Z,9.93
2022-10-18T10:48:29.922Z,8.70
2022-10-18T10:51:00.911Z,9.75
2022-10-18T10:53:39.646Z,10.90
2022-10-18T10:56:07.158Z,11.55
2022-10-18T10:58:40.102Z,10.98
2022-10-18T11:01:22.308Z,12.20
2022-10-18T11:03:50.922Z,12.73
2022-10-18T11:06:33.787Z,14.15
2022-10-18T11:09:02.005Z,13.77
2022-10-18T11:11:32.487Z,12.23
2022-10-18T11:14:26.209Z,12.73
2022-10-18T11:17:11.667Z,13.68
2022-10-18T11:20:02.005Z,12.32
2022-10-18T11:22:33.886Z,11.70
2022-10-18T11:25:03.299Z,11.38
2022-10-18T11:27:40.446Z,11.75
2022-10-18T11:30:26.890Z,12.85
2022-10-18T11:33:13.476Z,11.25
2022-10-18T11:35:47.319Z,12.20
2022-10-18T11:38:31.526Z,11.10
2022-10-18T11:41:13.169Z,11.23
2022-10-18T11:44:02.216Z,10.68
2022-10-18T11:46:32.698Z,10.73
2022-10-18T11:49:36.730Z,10.55
2022-10-18T11:52:14.062Z,11.60
2022-10-18T11:55:05.447Z,11.27
2022-10-18T11:57:53.835Z,9.25
2022-10-18T12:00:39.514Z,9.30
2022-10-18T12:03:15.098Z,9.15
2022-10-18T12:05:43.854Z,8.98
2022-10-18T12:08:24.940Z,9.20
2022-10-18T12:11:07.969Z,10.55
2022-10-18T12:13:46.909Z,10.80
2022-10-18T12:16:14.171Z,9.75
2022-10-18T12:18:54.291Z,9.02
2022-10-18T12:21:25.475Z,9.35
2022-10-18T12:24:18.772Z,9.10
2022-10-18T12:26:48.457Z,8.45
2022-10-18T12:29:32.920Z,8.50
2022-10-18T12:32:08.518Z,9.45
2022-10-18T12:34:45.435Z,9.18
2022-10-18T12:37:30.956Z,8.82
2022-10-18T12:40:11.087Z,6.68
2022-10-18T12:42:47.696Z,5.85
2022-10-18T12:45:33.251Z,6.25
2022-10-18T12:48:06.080Z,6.30
2022-10-18T12:50:41.511Z,6.38
2022-10-18T12:53:19.566Z,6.53
2022-10-18T12:55:48.751Z,7.53
2022-10-18T12:58:15.371Z,7.03
2022-10-18T13:00:41.780Z,7.28
2022-10-18T13:03:17.836Z,7.38
2022-10-18T13:05:55.681Z,7.75
2022-10-18T13:08:34.168Z,6.57
2022-10-18T13:11:12.459Z,6.32
2022-10-18T13:14:06.893Z,6.82
2022-10-18T13:16:38.458Z,6.55
2022-10-18T13:19:35.460Z,5.60
2022-10-18T13:22:14.380Z,5.35
2022-10-18T13:24:46.384Z,5.57
2022-10-18T13:27:43.239Z,5.70
2022-10-18T13:30:17.397Z,5.35
2022-10-18T13:33:01.413Z,5.00
2022-10-18T13:35:54.857Z,5.20
2022-10-18T13:38:30.468Z,6.10
2022-10-18T13:41:02.117Z,5.63
2022-10-18T13:44:07.370Z,5.43
2022-10-18T13:46:33.746Z,4.82
2022-10-18T13:49:17.358Z,4.10
2022-10-18T13:51:58.856Z,4.00
2022-10-18T13:54:25.161Z,4.97
2022-10-18T13:57:02.810Z,4.35
2022-10-18T13:59:32.333Z,4.78
2022-10-18T14:02:13.893Z,3.88
2022-10-18T14:05:25.256Z,3.38
2022-10-18T14:08:04.738Z,4.50
2022-10-18T14:11:01.797Z,4.30
2022-10-18T14:13:42.939Z,5.32
2022-10-18T14:16:21.363Z,4.43
2022-10-18T14:18:48.908Z,4.70
2022-10-18T14:21:30.219Z,3.53
2022-10-18T14:23:57.676Z,3.47
2022-10-18T14:26:24.315Z,4.72
2022-10-18T14:29:07.537Z,3.65
2022-10-18T14:31:34.596Z,4.68
2022-10-18T14:34:01.144Z,4.10
2022-10-18T14:36:31.292Z,3.92
2022-10-18T14:39:00.319Z,5.00
2022-10-18T14:41:27.725Z,4.25
2022-10-18T14:44:20.331Z,3.63
2022-10-18T14:46:58.769Z,3.80
2022-10-18T14:49:25.241Z,3.20
2022-10-18T14:51:53.139Z,3.92
2022-10-18T14:54:26.105Z,3.53
2022-10-18T14:56:55.858Z,3.50
2022-10-18T14:59:25.812Z,3.42
2022-10-18T15:01:55.384Z,4.17
2022-10-18T15:04:27.732Z,3.33
2022-10-18T15:06:55.368Z,3.30
2022-10-18T15:09:23.277Z,3.30
2022-10-18T15:11:50.167Z,3.08
2022-10-18T15:14:18.803Z,2.92
2022-10-18T15:16:46.663Z,3.72
2022-10-18T15:19:16.089Z,3.70
2022-10-18T15:22:30.141Z,2.90
2022-10-18T15:25:05.823Z,3.42
2022-10-18T15:27:35.878Z,3.45
2022-10-18T15:30:16.176Z,3.40
2022-10-18T15:32:55.066Z,4.50
2022-10-18T15:35:29.742Z,2.97
2022-10-18T15:38:00.241Z,3.15
2022-10-18T15:40:33.493Z,3.40
2022-10-18T15:43:02.283Z,4.40
2022-10-18T15:45:35.045Z,3.90
2022-10-18T15:48:10.585Z,3.50
2022-10-18T15:50:47.630Z,3.20
2022-10-18T15:53:20.014Z,2.90
2022-10-18T15:55:55.472Z,3.08
2022-10-18T15:58:25.935Z,3.58
2022-10-18T16:00:54.666Z,3.28
2022-10-18T16:03:22.215Z,3.20
2022-10-18T16:05:48.827Z,3.30
2022-10-18T16:08:28.330Z,3.83
2022-10-18T16:10:54.737Z,3.78
2022-10-18T16:13:21.171Z,4.60
2022-10-18T16:15:47.695Z,4.00
2022-10-18T16:18:16.914Z,3.40
2022-10-18T16:20:43.588Z,3.42
2022-10-18T16:23:15.618Z,3.83
2022-10-18T16:25:42.062Z,4.03
2022-10-18T16:28:13.393Z,3.65
2022-10-18T16:30:40.127Z,4.10
2022-10-18T16:33:07.442Z,3.75
2022-10-18T16:35:35.443Z,4.32
2022-10-18T16:38:02.033Z,3.80
2022-10-18T16:40:28.602Z,3.88
2022-10-18T16:42:54.977Z,3.30
2022-10-18T16:45:21.415Z,3.30
2022-10-18T16:47:47.835Z,3.67
2022-10-18T16:50:17.027Z,5.97
2022-10-18T16:52:43.584Z,8.50
2022-10-18T16:55:16.352Z,9.35
2022-10-18T16:57:43.349Z,9.38
2022-10-18T17:00:20.780Z,7.78
2022-10-18T17:02:48.335Z,5.97
2022-10-18T17:05:15.914Z,5.90
2022-10-18T17:07:42.415Z,5.57
2022-10-18T17:10:12.242Z,5.85
2022-10-18T17:12:38.854Z,5.75
2022-10-18T17:15:05.981Z,6.80
2022-10-18T17:17:32.606Z,6.32
2022-10-18T17:19:59.206Z,5.82
2022-10-18T17:22:25.800Z,6.30
2022-10-18T17:24:52.606Z,6.07
2022-10-18T17:27:19.324Z,7.22
2022-10-18T17:29:45.713Z,6.43
2022-10-18T17:32:12.142Z,8.05
2022-10-18T17:34:38.698Z,7.30
2022-10-18T17:37:05.813Z,7.38
2022-10-18T17:39:32.541Z,7.10
2022-10-18T17:41:59.561Z,7.32
2022-10-18T17:44:26.153Z,7.68
2022-10-18T17:46:52.876Z,7.38
2022-10-18T17:49:19.301Z,7.78
2022-10-18T17:51:46.372Z,6.85
2022-10-18T17:54:12.981Z,7.38
2022-10-18T17:56:40.214Z,6.93
2022-10-18T17:59:06.847Z,7.25
2022-10-18T18:01:33.742Z,5.95
2022-10-18T18:04:01.987Z,6.78
2022-10-18T18:06:36.302Z,9.85
2022-10-18T18:09:09.182Z,5.78
2022-10-18T18:11:37.903Z,6.00
2022-10-18T18:14:08.867Z,5.13
2022-10-18T18:16:40.603Z,6.70
2022-10-18T18:19:09.928Z,6.40
2022-10-18T18:21:37.297Z,5.35
2022-10-18T18:24:06.521Z,8.77
2022-10-18T18:26:34.107Z,6.38
2022-10-18T18:31:37.718Z,6.00
2022-10-18T18:34:06.634Z,5.03
2022-10-18T18:36:33.509Z,5.85
2022-10-18T18:38:59.990Z,5.63
2022-10-18T18:41:27.740Z,4.95
2022-10-18T18:44:02.719Z,4.70
2022-10-18T18:46:32.797Z,5.07
2022-10-18T18:48:59.340Z,4.55
2022-10-18T18:51:26.186Z,4.90
2022-10-18T18:53:52.623Z,4.15
2022-10-18T18:58:48.401Z,4.78
2022-10-18T19:01:21.100Z,3.30
2022-10-18T19:03:49.914Z,3.92
2022-10-18T19:06:21.858Z,3.22
2022-10-18T19:08:48.932Z,4.10
2022-10-18T19:11:17.994Z,4.40
2022-10-18T19:13:45.232Z,3.90
2022-10-18T19:16:30.997Z,4.00
2022-10-18T19:19:12.408Z,3.78
2022-10-18T19:21:45.856Z,6.53
2022-10-18T19:24:12.723Z,6.93
2022-10-18T19:26:53.132Z,8.48
2022-10-18T19:29:30.501Z,8.98
2022-10-18T19:31:58.935Z,8.52
2022-10-18T19:34:26.848Z,6.60
2022-10-18T19:36:53.630Z,6.88
2022-10-18T19:39:21.990Z,7.90
2022-10-18T19:41:50.688Z,7.22
2022-10-18T19:44:18.265Z,8.15
2022-10-18T19:46:45.137Z,7.78
2022-10-18T19:49:11.551Z,8.15
2022-10-18T19:51:38.443Z,8.10
2022-10-18T19:54:05.082Z,8.15
2022-10-18T19:56:31.552Z,7.55
2022-10-18T19:58:58.666Z,8.23
2022-10-18T20:01:26.378Z,7.20
2022-10-18T20:03:53.546Z,6.75
2022-10-18T20:06:20.504Z,7.82
2022-10-18T20:08:47.038Z,7.85
2022-10-18T20:11:19.540Z,6.32
2022-10-18T20:13:46.305Z,7.85
2022-10-18T20:16:14.406Z,7.72
2022-10-18T20:18:43.090Z,7.35
2022-10-18T20:21:14.284Z,8.15
2022-10-18T20:23:42.041Z,7.35
2022-10-18T20:26:18.273Z,6.65
2022-10-18T20:28:57.165Z,6.10
2022-10-18T20:31:41.876Z,6.20
2022-10-18T20:34:10.959Z,6.28
2022-10-18T20:36:37.537Z,5.90
2022-10-18T20:39:04.441Z,5.45
2022-10-18T20:41:33.965Z,5.57
2022-10-18T20:44:02.682Z,5.18
2022-10-18T20:46:34.321Z,5.28
2022-10-18T20:49:01.008Z,5.68
2022-10-18T20:51:27.835Z,5.35
2022-10-18T20:53:54.553Z,6.30
2022-10-18T20:56:23.310Z,5.80
2022-10-18T20:58:51.256Z,6.75
2022-10-18T21:01:25.538Z,7.22
2022-10-18T21:03:53.316Z,5.40
2022-10-18T21:06:22.145Z,5.47
2022-10-18T21:08:55.228Z,5.30
2022-10-18T21:11:21.627Z,6.10
2022-10-18T21:13:52.276Z,7.13
2022-10-18T21:16:18.773Z,8.52
2022-10-18T21:18:45.246Z,9.95
2022-10-18T21:21:16.712Z,10.23
2022-10-18T21:23:43.667Z,10.15
2022-10-18T21:26:36.553Z,7.40
2022-10-18T21:29:04.743Z,5.50
2022-10-18T21:31:36.269Z,5.68
2022-10-18T21:34:05.055Z,5.25
2022-10-18T21:36:34.070Z,5.30
2022-10-18T21:39:00.621Z,5.60
2022-10-18T21:41:27.035Z,5.85
2022-10-18T21:43:54.534Z,5.63
2022-10-18T21:46:22.691Z,5.47
2022-10-18T21:48:50.875Z,5.90
2022-10-18T21:51:22.642Z,6.47
2022-10-18T21:53:51.675Z,6.20
2022-10-18T21:56:20.863Z,5.70
2022-10-18T21:58:47.941Z,6.25
2022-10-18T22:01:20.283Z,5.88
2022-10-18T22:03:49.240Z,5.45
2022-10-18T22:06:16.633Z,5.32
2022-10-18T22:08:54.817Z,6.10
2022-10-18T22:11:28.809Z,5.28
2022-10-18T22:13:55.273Z,5.43
2022-10-18T22:16:22.045Z,5.32
2022-10-18T22:18:49.106Z,4.90
2022-10-18T22:21:16.701Z,5.40
2022-10-18T22:23:48.860Z,5.60
2022-10-18T22:26:18.090Z,6.53
2022-10-18T22:28:45.159Z,6.47
2022-10-18T22:31:20.192Z,7.10
2022-10-18T22:33:47.566Z,6.35
2022-10-18T22:36:13.960Z,5.60
2022-10-18T22:38:40.400Z,7.80
2022-10-18T22:41:08.249Z,7.07
2022-10-18T22:43:34.911Z,6.47
2022-10-18T22:46:02.771Z,6.03
2022-10-18T22:48:29.782Z,6.25
2022-10-18T22:50:56.440Z,5.70
2022-10-18T22:53:22.917Z,6.18
2022-10-18T22:55:49.784Z,5.90
2022-10-18T22:58:16.617Z,6.95
2022-10-18T23:00:43.161Z,6.80
2022-10-18T23:03:09.594Z,6.68
2022-10-18T23:05:40.244Z,5.97
2022-10-18T23:08:07.823Z,5.95
2022-10-18T23:10:34.344Z,6.18
2022-10-18T23:13:01.016Z,5.30
2022-10-18T23:15:27.501Z,6.00
2022-10-18T23:17:54.665Z,6.15
2022-10-18T23:20:21.532Z,6.30
2022-10-18T23:22:48.056Z,7.22
2022-10-18T23:25:14.590Z,7.07
2022-10-18T23:27:41.214Z,6.18
2022-10-18T23:30:08.629Z,7.70
2022-10-18T23:32:35.578Z,7.65
2022-10-18T23:35:02.211Z,6.50
2022-10-18T23:37:28.620Z,7.18
2022-10-18T23:39:55.026Z,6.57
2022-10-18T23:42:21.408Z,6.13
2022-10-18T23:44:48.168Z,6.80
2022-10-18T23:47:15.195Z,6.05
2022-10-18T23:49:41.779Z,6.78
2022-10-18T23:52:08.697Z,5.95
2022-10-18T23:54:35.090Z,6.25
2022-10-18T23:57:01.608Z,6.55
2022-10-18T23:59:28.014Z,7.50
